sensor_id;sensor_type;location;lat;lon;timestamp;P1;durP1;ratioP1;P2;durP2;ratioP2
19617;SDS011;9956;51.006;13.670;2022-09-20T00:04:42;4.72;;;2.85;;
19617;SDS011;9956;51.006;13.670;2022-09-20T00:09:42;6.07;;;3.75;;
19617;SDS011;9956;51.006;13.670;2022-09-20T00:14:43;5.88;;;3.85;;
19617;SDS011;9956;51.006;13.670;2022-09-20T00:19:43;4.47;;;3.35;;
19617;SDS011;9956;51.006;13.670;2022-09-20T00:24:44;6.18;;;4.13;;
19617;SDS011;9956;51.006;13.670;2022-09-20T00:29:44;6.80;;;4.00;;
19617;SDS011;9956;51.006;13.670;2022-09-20T00:34:44;7.28;;;4.30;;
19617;SDS011;9956;51.006;13.670;2022-09-20T00:40:04;5.85;;;3.75;;
19617;SDS011;9956;51.006;13.670;2022-09-20T00:55:41;6.30;;;4.93;;
19617;SDS011;9956;51.006;13.670;2022-09-20T01:00:44;6.97;;;4.57;;
19617;SDS011;9956;51.006;13.670;2022-09-20T01:05:46;13.35;;;6.68;;
19617;SDS011;9956;51.006;13.670;2022-09-20T01:10:46;12.90;;;6.88;;
19617;SDS011;9956;51.006;13.670;2022-09-20T01:15:47;10.05;;;5.63;;
19617;SDS011;9956;51.006;13.670;2022-09-20T01:20:48;9.73;;;5.80;;
19617;SDS011;9956;51.006;13.670;2022-09-20T01:31:28;9.68;;;5.68;;
19617;SDS011;9956;51.006;13.670;2022-09-20T01:41:57;11.68;;;6.80;;
19617;SDS011;9956;51.006;13.670;2022-09-20T01:47:04;14.50;;;7.18;;
19617;SDS011;9956;51.006;13.670;2022-09-20T01:58:15;16.00;;;6.82;;
19617;SDS011;9956;51.006;13.670;2022-09-20T02:08:48;16.05;;;6.88;;
19617;SDS011;9956;51.006;13.670;2022-09-20T02:24:48;11.10;;;6.18;;
19617;SDS011;9956;51.006;13.670;2022-09-20T02:30:03;14.95;;;6.22;;
19617;SDS011;9956;51.006;13.670;2022-09-20T02:35:17;10.98;;;6.18;;
19617;SDS011;9956;51.006;13.670;2022-09-20T02:40:43;11.38;;;7.10;;
19617;SDS011;9956;51.006;13.670;2022-09-20T02:51:23;11.25;;;6.22;;
19617;SDS011;9956;51.006;13.670;2022-09-20T02:56:42;10.13;;;6.75;;
19617;SDS011;9956;51.006;13.670;2022-09-20T03:07:17;12.68;;;6.00;;
19617;SDS011;9956;51.006;13.670;2022-09-20T03:12:28;12.50;;;6.40;;
19617;SDS011;9956;51.006;13.670;2022-09-20T03:17:49;18.30;;;7.13;;
19617;SDS011;9956;51.006;13.670;2022-09-20T03:49:36;14.85;;;8.27;;
19617;SDS011;9956;51.006;13.670;2022-09-20T04:00:41;11.98;;;7.75;;
19617;SDS011;9956;51.006;13.670;2022-09-20T04:06:08;15.30;;;9.45;;
19617;SDS011;9956;51.006;13.670;2022-09-20T04:11:24;21.63;;;11.90;;
19617;SDS011;9956;51.006;13.670;2022-09-20T04:16:40;21.83;;;10.98;;
19617;SDS011;9956;51.006;13.670;2022-09-20T04:21:55;16.83;;;10.02;;
19617;SDS011;9956;51.006;13.670;2022-09-20T04:27:03;17.35;;;9.10;;
19617;SDS011;9956;51.006;13.670;2022-09-20T04:37:47;28.20;;;12.10;;
19617;SDS011;9956;51.006;13.670;2022-09-20T04:47:57;22.95;;;11.73;;
19617;SDS011;9956;51.006;13.670;2022-09-20T04:58:47;23.27;;;10.05;;
19617;SDS011;9956;51.006;13.670;2022-09-20T05:29:49;14.90;;;8.90;;
19617;SDS011;9956;51.006;13.670;2022-09-20T05:45:46;16.65;;;10.02;;
19617;SDS011;9956;51.006;13.670;2022-09-20T06:02:09;30.17;;;12.77;;
19617;SDS011;9956;51.006;13.670;2022-09-20T06:12:56;19.58;;;8.85;;
19617;SDS011;9956;51.006;13.670;2022-09-20T06:23:58;15.85;;;8.30;;
19617;SDS011;9956;51.006;13.670;2022-09-20T06:29:01;24.63;;;9.40;;
19617;SDS011;9956;51.006;13.670;2022-09-20T06:34:12;16.05;;;8.95;;
19617;SDS011;9956;51.006;13.670;2022-09-20T06:44:49;19.50;;;10.63;;
19617;SDS011;9956;51.006;13.670;2022-09-20T06:49:49;19.95;;;11.60;;
19617;SDS011;9956;51.006;13.670;2022-09-20T06:54:50;13.18;;;10.27;;
19617;SDS011;9956;51.006;13.670;2022-09-20T06:59:56;19.00;;;10.98;;
19617;SDS011;9956;51.006;13.670;2022-09-20T07:04:56;16.05;;;10.00;;
19617;SDS011;9956;51.006;13.670;2022-09-20T07:09:58;12.68;;;9.23;;
19617;SDS011;9956;51.006;13.670;2022-09-20T07:14:58;15.75;;;9.05;;
19617;SDS011;9956;51.006;13.670;2022-09-20T07:19:59;9.68;;;6.85;;
19617;SDS011;9956;51.006;13.670;2022-09-20T07:24:59;9.63;;;7.20;;
19617;SDS011;9956;51.006;13.670;2022-09-20T07:30:01;10.10;;;6.95;;
19617;SDS011;9956;51.006;13.670;2022-09-20T07:35:02;8.57;;;6.38;;
19617;SDS011;9956;51.006;13.670;2022-09-20T07:40:03;12.73;;;7.18;;
19617;SDS011;9956;51.006;13.670;2022-09-20T07:45:04;8.27;;;7.05;;
19617;SDS011;9956;51.006;13.670;2022-09-20T07:50:06;11.75;;;8.20;;
19617;SDS011;9956;51.006;13.670;2022-09-20T07:55:08;12.40;;;8.63;;
19617;SDS011;9956;51.006;13.670;2022-09-20T08:00:09;12.32;;;8.35;;
19617;SDS011;9956;51.006;13.670;2022-09-20T08:05:13;12.02;;;7.53;;
19617;SDS011;9956;51.006;13.670;2022-09-20T08:10:13;12.50;;;7.43;;
19617;SDS011;9956;51.006;13.670;2022-09-20T08:15:14;11.10;;;8.55;;
19617;SDS011;9956;51.006;13.670;2022-09-20T08:20:14;13.35;;;9.05;;
19617;SDS011;9956;51.006;13.670;2022-09-20T08:25:15;11.25;;;7.68;;
19617;SDS011;9956;51.006;13.670;2022-09-20T08:30:16;11.05;;;7.68;;
19617;SDS011;9956;51.006;13.670;2022-09-20T08:35:17;15.50;;;8.25;;
19617;SDS011;9956;51.006;13.670;2022-09-20T08:40:17;8.07;;;6.85;;
19617;SDS011;9956;51.006;13.670;2022-09-20T08:45:18;15.32;;;8.07;;
19617;SDS011;9956;51.006;13.670;2022-09-20T08:50:24;9.23;;;7.32;;
19617;SDS011;9956;51.006;13.670;2022-09-20T08:55:26;10.10;;;7.07;;
19617;SDS011;9956;51.006;13.670;2022-09-20T09:00:31;8.52;;;7.28;;
19617;SDS011;9956;51.006;13.670;2022-09-20T09:05:34;10.63;;;7.10;;
19617;SDS011;9956;51.006;13.670;2022-09-20T09:10:47;7.07;;;5.22;;
19617;SDS011;9956;51.006;13.670;2022-09-20T09:16:12;9.93;;;5.90;;
19617;SDS011;9956;51.006;13.670;2022-09-20T09:26:28;8.75;;;5.00;;
19617;SDS011;9956;51.006;13.670;2022-09-20T09:31:34;7.10;;;5.18;;
19617;SDS011;9956;51.006;13.670;2022-09-20T09:36:42;6.10;;;4.65;;
19617;SDS011;9956;51.006;13.670;2022-09-20T09:41:43;6.40;;;4.63;;
19617;SDS011;9956;51.006;13.670;2022-09-20T09:46:45;4.95;;;4.05;;
19617;SDS011;9956;51.006;13.670;2022-09-20T10:02:17;7.50;;;5.40;;
19617;SDS011;9956;51.006;13.670;2022-09-20T10:07:51;6.75;;;4.47;;
19617;SDS011;9956;51.006;13.670;2022-09-20T10:23:21;5.28;;;3.88;;
19617;SDS011;9956;51.006;13.670;2022-09-20T10:28:34;5.35;;;3.92;;
19617;SDS011;9956;51.006;13.670;2022-09-20T10:39:12;5.07;;;3.25;;
19617;SDS011;9956;51.006;13.670;2022-09-20T11:00:48;2.95;;;1.45;;
19617;SDS011;9956;51.006;13.670;2022-09-20T11:17:21;4.57;;;2.25;;
19617;SDS011;9956;51.006;13.670;2022-09-20T11:22:37;5.32;;;2.63;;
19617;SDS011;9956;51.006;13.670;2022-09-20T11:33:42;4.78;;;2.63;;
19617;SDS011;9956;51.006;13.670;2022-09-20T11:38:47;7.75;;;3.10;;
19617;SDS011;9956;51.006;13.670;2022-09-20T11:43:51;8.02;;;3.70;;
19617;SDS011;9956;51.006;13.670;2022-09-20T11:59:29;3.13;;;1.92;;
19617;SDS011;9956;51.006;13.670;2022-09-20T12:04:33;3.75;;;1.67;;
19617;SDS011;9956;51.006;13.670;2022-09-20T12:09:35;1.05;;;0.73;;
19617;SDS011;9956;51.006;13.670;2022-09-20T12:14:37;2.63;;;0.90;;
19617;SDS011;9956;51.006;13.670;2022-09-20T12:19:38;2.95;;;1.10;;
19617;SDS011;9956;51.006;13.670;2022-09-20T12:24:39;2.78;;;1.40;;
19617;SDS011;9956;51.006;13.670;2022-09-20T12:34:50;2.58;;;0.90;;
19617;SDS011;9956;51.006;13.670;2022-09-20T12:39:52;1.42;;;1.00;;
19617;SDS011;9956;51.006;13.670;2022-09-20T12:49:59;1.35;;;0.90;;
19617;SDS011;9956;51.006;13.670;2022-09-20T13:16:06;2.03;;;1.10;;
19617;SDS011;9956;51.006;13.670;2022-09-20T13:21:19;1.90;;;1.15;;
19617;SDS011;9956;51.006;13.670;2022-09-20T13:26:21;1.98;;;0.90;;
19617;SDS011;9956;51.006;13.670;2022-09-20T13:31:26;2.97;;;0.90;;
19617;SDS011;9956;51.006;13.670;2022-09-20T13:36:27;3.03;;;0.90;;
19617;SDS011;9956;51.006;13.670;2022-09-20T13:41:29;5.18;;;1.00;;
19617;SDS011;9956;51.006;13.670;2022-09-20T13:46:31;1.13;;;0.70;;
19617;SDS011;9956;51.006;13.670;2022-09-20T13:51:35;1.50;;;0.73;;
19617;SDS011;9956;51.006;13.670;2022-09-20T13:56:36;5.80;;;0.87;;
19617;SDS011;9956;51.006;13.670;2022-09-20T14:01:46;1.48;;;0.52;;
19617;SDS011;9956;51.006;13.670;2022-09-20T14:06:49;2.65;;;0.73;;
19617;SDS011;9956;51.006;13.670;2022-09-20T14:11:52;3.00;;;0.80;;
19617;SDS011;9956;51.006;13.670;2022-09-20T14:16:53;2.15;;;0.40;;
19617;SDS011;9956;51.006;13.670;2022-09-20T14:21:55;0.73;;;0.30;;
19617;SDS011;9956;51.006;13.670;2022-09-20T14:27:05;0.28;;;0.20;;
19617;SDS011;9956;51.006;13.670;2022-09-20T14:37:26;1.57;;;0.73;;
19617;SDS011;9956;51.006;13.670;2022-09-20T14:42:41;0.60;;;0.50;;
19617;SDS011;9956;51.006;13.670;2022-09-20T14:47:54;2.72;;;0.80;;
19617;SDS011;9956;51.006;13.670;2022-09-20T14:53:01;3.40;;;1.90;;
19617;SDS011;9956;51.006;13.670;2022-09-20T14:58:28;4.00;;;1.40;;
19617;SDS011;9956;51.006;13.670;2022-09-20T15:08:48;1.52;;;0.93;;
19617;SDS011;9956;51.006;13.670;2022-09-20T15:13:49;2.55;;;1.90;;
19617;SDS011;9956;51.006;13.670;2022-09-20T15:18:49;4.50;;;2.83;;
19617;SDS011;9956;51.006;13.670;2022-09-20T15:23:49;4.07;;;2.95;;
19617;SDS011;9956;51.006;13.670;2022-09-20T15:28:51;4.07;;;3.13;;
19617;SDS011;9956;51.006;13.670;2022-09-20T15:33:51;9.20;;;4.45;;
19617;SDS011;9956;51.006;13.670;2022-09-20T15:38:52;7.97;;;4.10;;
19617;SDS011;9956;51.006;13.670;2022-09-20T15:43:53;12.05;;;7.15;;
19617;SDS011;9956;51.006;13.670;2022-09-20T15:48:54;4.85;;;2.95;;
19617;SDS011;9956;51.006;13.670;2022-09-20T15:53:57;5.45;;;3.78;;
19617;SDS011;9956;51.006;13.670;2022-09-20T15:58:59;6.97;;;4.50;;
19617;SDS011;9956;51.006;13.670;2022-09-20T16:04:08;10.13;;;6.47;;
19617;SDS011;9956;51.006;13.670;2022-09-20T16:09:09;10.35;;;5.65;;
19617;SDS011;9956;51.006;13.670;2022-09-20T16:14:10;7.05;;;4.57;;
19617;SDS011;9956;51.006;13.670;2022-09-20T16:19:11;4.47;;;3.28;;
19617;SDS011;9956;51.006;13.670;2022-09-20T16:24:23;5.18;;;3.88;;
19617;SDS011;9956;51.006;13.670;2022-09-20T16:29:25;4.35;;;2.95;;
19617;SDS011;9956;51.006;13.670;2022-09-20T16:34:30;5.90;;;3.38;;
19617;SDS011;9956;51.006;13.670;2022-09-20T16:39:32;4.68;;;3.20;;
19617;SDS011;9956;51.006;13.670;2022-09-20T16:44:34;4.40;;;2.80;;
19617;SDS011;9956;51.006;13.670;2022-09-20T16:49:36;7.72;;;5.47;;
19617;SDS011;9956;51.006;13.670;2022-09-20T16:54:36;10.10;;;6.40;;
19617;SDS011;9956;51.006;13.670;2022-09-20T16:59:37;8.90;;;6.78;;
19617;SDS011;9956;51.006;13.670;2022-09-20T17:04:37;7.97;;;6.80;;
19617;SDS011;9956;51.006;13.670;2022-09-20T17:09:38;9.65;;;8.57;;
19617;SDS011;9956;51.006;13.670;2022-09-20T17:14:38;12.15;;;10.85;;
19617;SDS011;9956;51.006;13.670;2022-09-20T17:19:38;13.40;;;12.00;;
19617;SDS011;9956;51.006;13.670;2022-09-20T17:24:39;11.85;;;8.85;;
19617;SDS011;9956;51.006;13.670;2022-09-20T17:29:39;7.38;;;6.68;;
19617;SDS011;9956;51.006;13.670;2022-09-20T17:34:40;7.50;;;6.72;;
19617;SDS011;9956;51.006;13.670;2022-09-20T17:39:40;10.13;;;9.13;;
19617;SDS011;9956;51.006;13.670;2022-09-20T17:44:40;9.25;;;8.43;;
19617;SDS011;9956;51.006;13.670;2022-09-20T17:49:41;6.93;;;6.32;;
19617;SDS011;9956;51.006;13.670;2022-09-20T17:54:41;7.38;;;6.68;;
19617;SDS011;9956;51.006;13.670;2022-09-20T17:59:42;8.18;;;7.38;;
19617;SDS011;9956;51.006;13.670;2022-09-20T18:04:42;8.95;;;8.15;;
19617;SDS011;9956;51.006;13.670;2022-09-20T18:09:44;8.48;;;7.68;;
19617;SDS011;9956;51.006;13.670;2022-09-20T18:14:44;11.52;;;8.80;;
19617;SDS011;9956;51.006;13.670;2022-09-20T18:19:44;14.63;;;12.20;;
19617;SDS011;9956;51.006;13.670;2022-09-20T18:24:45;13.02;;;11.60;;
19617;SDS011;9956;51.006;13.670;2022-09-20T18:29:45;9.15;;;8.20;;
19617;SDS011;9956;51.006;13.670;2022-09-20T18:34:46;9.13;;;8.27;;
19617;SDS011;9956;51.006;13.670;2022-09-20T18:39:50;9.32;;;7.95;;
19617;SDS011;9956;51.006;13.670;2022-09-20T18:44:50;9.43;;;7.47;;
19617;SDS011;9956;51.006;13.670;2022-09-20T18:49:51;11.18;;;9.55;;
19617;SDS011;9956;51.006;13.670;2022-09-20T18:54:51;8.77;;;8.07;;
19617;SDS011;9956;51.006;13.670;2022-09-20T18:59:55;9.20;;;8.30;;
19617;SDS011;9956;51.006;13.670;2022-09-20T19:05:57;10.45;;;9.45;;
19617;SDS011;9956;51.006;13.670;2022-09-20T19:15:51;13.95;;;11.70;;
19617;SDS011;9956;51.006;13.670;2022-09-20T19:26:32;12.25;;;8.88;;
19617;SDS011;9956;51.006;13.670;2022-09-20T19:31:37;10.48;;;9.32;;
19617;SDS011;9956;51.006;13.670;2022-09-20T19:36:43;10.00;;;8.60;;
19617;SDS011;9956;51.006;13.670;2022-09-20T19:47:20;8.55;;;7.65;;
19617;SDS011;9956;51.006;13.670;2022-09-20T19:52:29;8.95;;;8.05;;
19617;SDS011;9956;51.006;13.670;2022-09-20T19:57:43;9.48;;;8.57;;
19617;SDS011;9956;51.006;13.670;2022-09-20T20:02:46;9.23;;;8.30;;
19617;SDS011;9956;51.006;13.670;2022-09-20T20:13:05;7.43;;;6.72;;
19617;SDS011;9956;51.006;13.670;2022-09-20T20:29:24;8.55;;;6.47;;
19617;SDS011;9956;51.006;13.670;2022-09-20T20:34:25;8.55;;;6.15;;
19617;SDS011;9956;51.006;13.670;2022-09-20T20:39:26;8.13;;;6.30;;
19617;SDS011;9956;51.006;13.670;2022-09-20T20:44:29;8.43;;;6.93;;
19617;SDS011;9956;51.006;13.670;2022-09-20T20:49:30;9.48;;;7.20;;
19617;SDS011;9956;51.006;13.670;2022-09-20T20:54:31;9.18;;;6.88;;
19617;SDS011;9956;51.006;13.670;2022-09-20T20:59:31;7.57;;;6.53;;
19617;SDS011;9956;51.006;13.670;2022-09-20T21:04:32;8.32;;;6.60;;
19617;SDS011;9956;51.006;13.670;2022-09-20T21:09:33;7.43;;;6.57;;
19617;SDS011;9956;51.006;13.670;2022-09-20T21:14:33;7.05;;;6.20;;
19617;SDS011;9956;51.006;13.670;2022-09-20T21:19:33;8.02;;;6.47;;
19617;SDS011;9956;51.006;13.670;2022-09-20T21:24:34;7.13;;;6.45;;
19617;SDS011;9956;51.006;13.670;2022-09-20T21:29:34;6.50;;;5.72;;
19617;SDS011;9956;51.006;13.670;2022-09-20T21:34:35;6.78;;;5.63;;
19617;SDS011;9956;51.006;13.670;2022-09-20T21:39:36;8.25;;;5.57;;
19617;SDS011;9956;51.006;13.670;2022-09-20T21:44:36;6.05;;;4.88;;
19617;SDS011;9956;51.006;13.670;2022-09-20T21:49:41;5.65;;;4.70;;
19617;SDS011;9956;51.006;13.670;2022-09-20T21:54:41;7.28;;;5.18;;
19617;SDS011;9956;51.006;13.670;2022-09-20T21:59:42;7.03;;;5.35;;
19617;SDS011;9956;51.006;13.670;2022-09-20T22:04:42;4.53;;;4.10;;
19617;SDS011;9956;51.006;13.670;2022-09-20T22:09:43;4.20;;;3.80;;
19617;SDS011;9956;51.006;13.670;2022-09-20T22:14:44;5.13;;;4.70;;
19617;SDS011;9956;51.006;13.670;2022-09-20T22:19:44;4.55;;;4.05;;
19617;SDS011;9956;51.006;13.670;2022-09-20T22:24:45;4.88;;;3.30;;
19617;SDS011;9956;51.006;13.670;2022-09-20T22:29:45;4.18;;;3.78;;
19617;SDS011;9956;51.006;13.670;2022-09-20T22:34:45;4.22;;;3.65;;
19617;SDS011;9956;51.006;13.670;2022-09-20T22:39:46;7.65;;;3.50;;
19617;SDS011;9956;51.006;13.670;2022-09-20T22:44:46;4.82;;;3.78;;
19617;SDS011;9956;51.006;13.670;2022-09-20T22:49:47;5.03;;;3.40;;
19617;SDS011;9956;51.006;13.670;2022-09-20T22:54:47;5.57;;;3.75;;
19617;SDS011;9956;51.006;13.670;2022-09-20T22:59:47;7.78;;;3.85;;
19617;SDS011;9956;51.006;13.670;2022-09-20T23:04:48;7.10;;;4.57;;
19617;SDS011;9956;51.006;13.670;2022-09-20T23:09:48;8.88;;;4.25;;
19617;SDS011;9956;51.006;13.670;2022-09-20T23:14:49;5.65;;;3.58;;
19617;SDS011;9956;51.006;13.670;2022-09-20T23:19:49;7.85;;;3.85;;
19617;SDS011;9956;51.006;13.670;2022-09-20T23:24:49;9.05;;;5.00;;
19617;SDS011;9956;51.006;13.670;2022-09-20T23:29:50;9.00;;;4.10;;
19617;SDS011;9956;51.006;13.670;2022-09-20T23:34:50;6.78;;;3.78;;
19617;SDS011;9956;51.006;13.670;2022-09-20T23:39:51;5.05;;;3.00;;
19617;SDS011;9956;51.006;13.670;2022-09-20T23:44:51;3.47;;;2.95;;
19617;SDS011;9956;51.006;13.670;2022-09-20T23:49:52;3.90;;;3.28;;
19617;SDS011;9956;51.006;13.670;2022-09-20T23:54:52;4.07;;;3.17;;
19617;SDS011;9956;51.006;13.670;2022-09-20T23:59:53;3.63;;;3.13;;
